Terminal Aerodrome Forecast
Issued by NWS

Home | Current Version | Previous Version | Text Only | Print | Product List | Glossary On
Versions: 1 2 3 4 5 6 7 8 9 10 11 12 13 14 15 16 17 18 19 20 21 22 23 24 25
000
FTUS41 KRLX 070813 AAA
TAFCKB
TAF AMD
KCKB 070813Z 0708/0806 20004KT 5SM BR SCT035
     FM071300 21006KT P6SM SCT030
     FM071700 22010G16KT P6SM SCT030
     FM071800 21010G18KT P6SM BKN035
     FM072200 23009KT P6SM BKN040 BKN100
     FM080100 22007KT 4SM TSRA BR BKN040CB BKN080
     FM080300 23005KT 2SM SHRA BR VCTS BKN030CB BKN080=

USA.gov is the U.S. government's official web portal to all federal, state and local government web resources and services.